createdAt,value
2017-01-04T00:00:04.894Z,77.2
2017-01-04T00:05:04.998Z,76.92
2017-01-04T00:10:05.249Z,76.63
2017-01-04T00:15:05.083Z,76.44
2017-01-04T00:20:05.017Z,76.25
2017-01-04T00:25:04.995Z,76.25
2017-01-04T00:30:05.009Z,76.25
2017-01-04T00:35:04.942Z,76.25
2017-01-04T00:40:05.231Z,76.34
2017-01-04T00:45:05.421Z,76.34
2017-01-04T00:50:04.408Z,76.34
2017-01-04T00:55:05.323Z,76.44
2017-01-04T01:00:05.241Z,76.92
2017-01-04T01:05:05.256Z,77.52
2017-01-04T01:10:05.399Z,77.81
2017-01-04T01:15:04.466Z,77.62
2017-01-04T01:20:05.262Z,77.29
2017-01-04T01:25:05.277Z,76.63
2017-01-04T01:30:05.306Z,76.34
2017-01-04T01:35:05.229Z,76.15
2017-01-04T01:40:04.355Z,75.87
2017-01-04T01:45:05.361Z,75.68
2017-01-04T01:50:05.299Z,75.68
2017-01-04T01:55:05.404Z,75.59
2017-01-04T02:00:05.187Z,75.59
2017-01-04T02:05:05.010Z,75.49
2017-01-04T02:10:05.199Z,75.4
2017-01-04T02:15:05.279Z,75.31
2017-01-04T02:20:05.183Z,75.11
2017-01-04T02:25:05.263Z,74.92
2017-01-04T02:30:05.014Z,74.73
2017-01-04T02:35:04.787Z,74.64
2017-01-04T02:40:05.074Z,74.54
2017-01-04T02:45:04.823Z,74.35
2017-01-04T02:50:04.556Z,74.2
2017-01-04T02:55:04.525Z,74.2
2017-01-04T03:00:05.026Z,74.01
2017-01-04T03:05:06.997Z,73.92
2017-01-04T03:10:04.456Z,73.82
2017-01-04T03:15:05.190Z,73.63
2017-01-04T03:20:05.217Z,73.54
2017-01-04T03:25:05.012Z,73.35
2017-01-04T03:30:05.023Z,73.25
2017-01-04T03:35:05.189Z,73.16
2017-01-04T03:40:04.603Z,73.07
2017-01-04T03:45:04.421Z,72.97
2017-01-04T03:50:05.189Z,72.97
2017-01-04T03:55:05.236Z,72.97
2017-01-04T04:00:05.274Z,72.97
2017-01-04T04:05:05.014Z,72.97
2017-01-04T04:10:04.469Z,73.07
2017-01-04T04:15:05.428Z,73.16
2017-01-04T04:20:05.266Z,73.35
2017-01-04T04:25:05.157Z,73.54
2017-01-04T04:30:05.133Z,73.72
2017-01-04T04:35:04.998Z,73.92
2017-01-04T04:40:04.950Z,74.3
2017-01-04T04:45:04.853Z,74.39
2017-01-04T04:50:04.582Z,74.49
2017-01-04T04:55:04.361Z,76.1
2017-01-04T05:00:05.067Z,79.8
2017-01-04T05:05:05.004Z,81.04
2017-01-04T05:10:04.380Z,82.46
2017-01-04T05:15:05.331Z,84.36
2017-01-04T05:20:05.171Z,87.01
2017-01-04T05:25:05.089Z,87.87
2017-01-04T05:30:05.174Z,88.91
2017-01-04T05:35:04.964Z,89.58
2017-01-04T05:40:05.170Z,90.52
2017-01-04T05:45:04.825Z,92.52
2017-01-04T05:50:04.494Z,94.32
2017-01-04T05:55:05.115Z,94.89
2017-01-04T06:00:05.236Z,96.12
2017-01-04T06:05:04.991Z,96.5
2017-01-04T06:10:05.189Z,96.97
2017-01-04T06:15:05.279Z,96.5
2017-01-04T06:20:05.319Z,96.17
2017-01-04T06:25:04.491Z,96.26
2017-01-04T06:30:04.714Z,97.17
2017-01-04T06:35:04.840Z,99.99
2017-01-04T06:40:05.352Z,99.99
2017-01-04T06:45:05.296Z,99.99
2017-01-04T06:50:05.343Z,99.99
2017-01-04T06:55:05.215Z,99.99
2017-01-04T07:00:05.251Z,99.99
2017-01-04T07:05:05.236Z,99.99
2017-01-04T07:10:04.520Z,99.99
2017-01-04T07:15:04.482Z,99.99
2017-01-04T07:20:04.425Z,99.99
2017-01-04T07:25:05.307Z,99.99
2017-01-04T07:30:05.452Z,99.99
2017-01-04T07:35:05.455Z,99.99
2017-01-04T07:40:05.394Z,99.99
2017-01-04T07:45:05.293Z,99.99
2017-01-04T07:50:05.278Z,99.99
2017-01-04T07:55:05.091Z,99.99
2017-01-04T08:00:04.956Z,99.99
2017-01-04T08:05:04.673Z,99.99
2017-01-04T08:10:04.597Z,99.99
2017-01-04T08:15:04.588Z,99.99
2017-01-04T08:20:04.552Z,99.99
2017-01-04T08:25:04.489Z,99.99
2017-01-04T08:30:04.539Z,99.99
2017-01-04T08:35:05.381Z,99.99
2017-01-04T08:40:04.688Z,99.99
2017-01-04T08:45:04.851Z,99.99
2017-01-04T08:50:04.786Z,99.99
2017-01-04T08:55:04.785Z,99.99
2017-01-04T09:00:04.833Z,99.99
2017-01-04T09:05:04.660Z,99.99
2017-01-04T09:10:04.716Z,99.99
2017-01-04T09:15:04.617Z,99.99
2017-01-04T09:20:04.686Z,99.99
2017-01-04T09:25:04.660Z,99.99
2017-01-04T09:30:04.571Z,99.99
2017-01-04T09:35:04.583Z,99.99
2017-01-04T09:40:04.627Z,99.99
2017-01-04T09:45:04.724Z,99.99
2017-01-04T09:50:04.681Z,99.99
2017-01-04T09:55:04.823Z,99.99
2017-01-04T10:00:04.414Z,99.99
2017-01-04T10:05:04.608Z,99.99
2017-01-04T10:10:04.511Z,99.99
2017-01-04T10:15:04.523Z,99.99
2017-01-04T10:20:04.526Z,99.99
2017-01-04T10:25:05.229Z,99.99
2017-01-04T10:30:05.314Z,99.99
2017-01-04T10:35:04.525Z,99.99
2017-01-04T10:40:05.022Z,99.99
2017-01-04T10:45:04.981Z,99.99
2017-01-04T10:50:04.806Z,99.99
2017-01-04T10:55:04.500Z,99.99
2017-01-04T11:00:05.385Z,99.99
2017-01-04T11:05:05.127Z,99.99
2017-01-04T11:10:04.544Z,99.99
2017-01-04T11:15:05.377Z,99.99
2017-01-04T11:20:04.588Z,99.99
2017-01-04T11:25:05.247Z,99.99
2017-01-04T11:30:05.462Z,99.99
2017-01-04T11:35:05.233Z,99.99
2017-01-04T11:40:04.430Z,99.99
2017-01-04T11:45:04.554Z,99.99
2017-01-04T11:50:04.573Z,99.99
2017-01-04T11:55:04.534Z,99.99
2017-01-04T12:00:04.325Z,99.99
2017-01-04T12:05:05.008Z,99.99
2017-01-04T12:10:04.478Z,99.99
2017-01-04T12:15:04.619Z,99.99
2017-01-04T12:20:04.715Z,99.99
2017-01-04T12:25:04.813Z,98.22
2017-01-04T12:30:04.975Z,97.56
2017-01-04T12:35:05.060Z,96.13
2017-01-04T12:40:05.877Z,95.46
2017-01-04T12:45:05.714Z,96.12
2017-01-04T12:50:05.279Z,97.89
2017-01-04T12:55:05.992Z,97.41
2017-01-04T13:00:05.801Z,97.17
2017-01-04T13:05:05.457Z,99.99
2017-01-04T13:10:05.480Z,99.99
2017-01-04T13:15:05.199Z,99.99
2017-01-04T13:20:05.772Z,99.99
2017-01-04T13:25:05.545Z,99.99
2017-01-04T13:30:04.620Z,99.99
2017-01-04T13:35:04.591Z,99.99
2017-01-04T13:40:05.065Z,99.99
2017-01-04T13:45:04.949Z,99.99
2017-01-04T13:50:05.954Z,99.99
2017-01-04T13:55:05.096Z,99.99
2017-01-04T14:00:05.200Z,98.98
2017-01-04T14:05:05.178Z,99.17
2017-01-04T14:10:04.788Z,96.7
2017-01-04T14:15:04.591Z,96.84
2017-01-04T14:20:04.695Z,98.79
2017-01-04T14:25:04.597Z,99.26
2017-01-04T14:30:04.543Z,98.5
2017-01-04T14:35:04.762Z,99.88
2017-01-04T14:40:05.209Z,99.99
2017-01-04T14:45:05.377Z,99.99
2017-01-04T14:50:05.369Z,99.99
2017-01-04T14:55:05.173Z,99.99
2017-01-04T15:00:05.018Z,99.99
2017-01-04T15:05:04.865Z,99.99
2017-01-04T15:10:05.194Z,99.99
2017-01-04T15:15:05.329Z,99.99
2017-01-04T15:20:05.377Z,99.99
2017-01-04T15:25:05.312Z,99.99
2017-01-04T15:30:05.507Z,99.99
2017-01-04T15:35:04.665Z,99.99
2017-01-04T15:40:05.028Z,99.99
2017-01-04T15:45:04.940Z,99.99
2017-01-04T15:50:04.817Z,99.99
2017-01-04T15:55:04.758Z,99.99
2017-01-04T16:00:04.553Z,99.99
2017-01-04T16:05:04.523Z,99.99
2017-01-04T16:10:05.124Z,99.99
2017-01-04T16:15:04.978Z,99.99
2017-01-04T16:20:05.018Z,99.99
2017-01-04T16:25:04.774Z,99.99
2017-01-04T16:30:04.773Z,99.99
2017-01-04T16:35:04.883Z,99.99
2017-01-04T16:40:04.922Z,99.99
2017-01-04T16:45:04.802Z,99.99
2017-01-04T16:50:04.681Z,99.99
2017-01-04T16:55:04.824Z,99.99
2017-01-04T17:00:05.472Z,99.99
2017-01-04T17:05:04.875Z,99.99
2017-01-04T17:10:05.291Z,99.99
2017-01-04T17:15:05.607Z,99.99
2017-01-04T17:20:04.578Z,99.99
2017-01-04T17:25:06.172Z,99.99
2017-01-04T17:30:05.198Z,99.99
2017-01-04T17:35:05.497Z,99.99
2017-01-04T17:40:04.868Z,99.99
2017-01-04T17:45:04.984Z,99.99
2017-01-04T17:50:05.033Z,99.99
2017-01-04T17:55:05.248Z,99.99
2017-01-04T18:00:05.216Z,99.99
2017-01-04T18:05:05.243Z,99.99
2017-01-04T18:10:04.692Z,99.99
2017-01-04T18:15:05.374Z,99.99
2017-01-04T18:20:05.327Z,99.99
2017-01-04T18:25:05.295Z,99.99
2017-01-04T18:30:05.332Z,99.99
2017-01-04T18:35:05.039Z,99.99
2017-01-04T18:40:05.187Z,99.99
2017-01-04T18:45:04.878Z,99.99
2017-01-04T18:50:04.578Z,99.99
2017-01-04T18:55:05.456Z,99.99
2017-01-04T19:00:04.446Z,99.99
2017-01-04T19:05:04.681Z,99.99
2017-01-04T19:10:04.941Z,99.99
2017-01-04T19:15:05.113Z,99.99
2017-01-04T19:20:05.245Z,99.99
2017-01-04T19:25:05.491Z,99.99
2017-01-04T19:30:04.630Z,99.99
2017-01-04T19:35:04.844Z,99.99
2017-01-04T19:40:05.110Z,99.99
2017-01-04T19:45:05.084Z,99.99
2017-01-04T19:50:05.138Z,99.99
2017-01-04T19:55:04.936Z,99.99
2017-01-04T20:00:04.600Z,99.99
2017-01-04T20:05:04.524Z,99.99
2017-01-04T20:10:04.983Z,99.99
2017-01-04T20:15:04.991Z,99.99
2017-01-04T20:20:04.850Z,99.99
2017-01-04T20:25:04.670Z,99.99
2017-01-04T20:30:04.872Z,99.99
2017-01-04T20:35:04.775Z,99.99
2017-01-04T20:40:04.944Z,99.99
2017-01-04T20:45:04.825Z,99.99
2017-01-04T20:50:04.963Z,99.99
2017-01-04T20:55:05.090Z,99.99
2017-01-04T21:00:05.321Z,99.99
2017-01-04T21:05:05.212Z,99.99
2017-01-04T21:10:04.542Z,99.99
2017-01-04T21:15:04.460Z,99.99
2017-01-04T21:20:05.259Z,99.99
2017-01-04T21:25:05.485Z,99.99
2017-01-04T21:30:05.576Z,99.99
2017-01-04T21:35:04.612Z,99.99
2017-01-04T21:40:04.644Z,99.99
2017-01-04T21:45:04.669Z,99.99
2017-01-04T21:50:04.802Z,99.99
2017-01-04T21:55:04.960Z,99.99
2017-01-04T22:00:05.010Z,99.99
2017-01-04T22:05:05.122Z,99.99
2017-01-04T22:10:04.475Z,99.99
2017-01-04T22:15:04.567Z,99.99
2017-01-04T22:20:05.312Z,99.99
2017-01-04T22:25:05.212Z,99.99
2017-01-04T22:30:05.523Z,99.99
2017-01-04T22:35:05.345Z,99.99
2017-01-04T22:40:04.545Z,99.99
2017-01-04T22:45:04.459Z,99.99
2017-01-04T22:50:05.235Z,99.99
2017-01-04T22:55:05.142Z,99.99
2017-01-04T23:00:04.924Z,99.99
2017-01-04T23:05:04.587Z,99.99
2017-01-04T23:10:04.989Z,99.99
2017-01-04T23:15:05.044Z,99.99
2017-01-04T23:20:05.108Z,99.99
2017-01-04T23:25:05.039Z,99.99
2017-01-04T23:30:04.824Z,99.99
2017-01-04T23:35:04.643Z,99.99
2017-01-04T23:40:04.920Z,99.99
2017-01-04T23:45:05.085Z,99.99
2017-01-04T23:50:04.951Z,99.99
2017-01-04T23:55:04.616Z,99.99
